sensor_id;sensor_type;location;lat;lon;timestamp;P1;durP1;ratioP1;P2;durP2;ratioP2
27517;SDS011;14962;52.482;13.142;2022-09-09T00:01:56;4.10;;;3.35;;
27517;SDS011;14962;52.482;13.142;2022-09-09T00:09:44;5.10;;;3.65;;
27517;SDS011;14962;52.482;13.142;2022-09-09T00:12:12;9.40;;;4.28;;
27517;SDS011;14962;52.482;13.142;2022-09-09T00:14:51;6.05;;;3.95;;
27517;SDS011;14962;52.482;13.142;2022-09-09T00:19:50;6.38;;;3.58;;
27517;SDS011;14962;52.482;13.142;2022-09-09T00:22:23;4.18;;;3.63;;
27517;SDS011;14962;52.482;13.142;2022-09-09T00:24:53;8.63;;;4.28;;
27517;SDS011;14962;52.482;13.142;2022-09-09T00:27:30;4.55;;;3.38;;
27517;SDS011;14962;52.482;13.142;2022-09-09T00:32:44;5.32;;;3.90;;
27517;SDS011;14962;52.482;13.142;2022-09-09T00:35:14;6.07;;;4.68;;
27517;SDS011;14962;52.482;13.142;2022-09-09T00:37:43;4.28;;;3.85;;
27517;SDS011;14962;52.482;13.142;2022-09-09T00:48:11;6.53;;;4.60;;
27517;SDS011;14962;52.482;13.142;2022-09-09T00:50:49;5.15;;;4.03;;
27517;SDS011;14962;52.482;13.142;2022-09-09T00:58:27;4.90;;;4.30;;
27517;SDS011;14962;52.482;13.142;2022-09-09T01:00:57;5.85;;;4.40;;
27517;SDS011;14962;52.482;13.142;2022-09-09T01:11:03;6.45;;;4.70;;
27517;SDS011;14962;52.482;13.142;2022-09-09T01:13:31;4.80;;;4.18;;
27517;SDS011;14962;52.482;13.142;2022-09-09T01:15:58;6.00;;;5.05;;
27517;SDS011;14962;52.482;13.142;2022-09-09T01:18:26;5.20;;;4.68;;
27517;SDS011;14962;52.482;13.142;2022-09-09T01:28:27;6.15;;;4.80;;
27517;SDS011;14962;52.482;13.142;2022-09-09T01:30:54;7.65;;;4.82;;
27517;SDS011;14962;52.482;13.142;2022-09-09T01:33:20;6.97;;;5.70;;
27517;SDS011;14962;52.482;13.142;2022-09-09T01:35:48;6.13;;;5.07;;
27517;SDS011;14962;52.482;13.142;2022-09-09T01:38:16;8.65;;;5.82;;
27517;SDS011;14962;52.482;13.142;2022-09-09T01:40:42;8.95;;;5.65;;
27517;SDS011;14962;52.482;13.142;2022-09-09T01:43:08;6.60;;;5.43;;
27517;SDS011;14962;52.482;13.142;2022-09-09T01:45:34;7.18;;;5.75;;
27517;SDS011;14962;52.482;13.142;2022-09-09T01:48:00;8.18;;;5.82;;
27517;SDS011;14962;52.482;13.142;2022-09-09T01:50:27;6.40;;;5.00;;
27517;SDS011;14962;52.482;13.142;2022-09-09T01:52:57;8.98;;;6.43;;
27517;SDS011;14962;52.482;13.142;2022-09-09T01:55:28;6.63;;;5.75;;
27517;SDS011;14962;52.482;13.142;2022-09-09T01:58:00;8.82;;;5.55;;
27517;SDS011;14962;52.482;13.142;2022-09-09T02:00:31;6.95;;;5.63;;
27517;SDS011;14962;52.482;13.142;2022-09-09T02:05:30;7.22;;;6.45;;
27517;SDS011;14962;52.482;13.142;2022-09-09T02:08:13;13.75;;;6.93;;
27517;SDS011;14962;52.482;13.142;2022-09-09T02:10:45;6.85;;;5.03;;
27517;SDS011;14962;52.482;13.142;2022-09-09T02:13:12;7.65;;;5.43;;
27517;SDS011;14962;52.482;13.142;2022-09-09T02:15:43;9.40;;;5.88;;
27517;SDS011;14962;52.482;13.142;2022-09-09T02:18:11;8.10;;;5.47;;
27517;SDS011;14962;52.482;13.142;2022-09-09T02:20:38;6.85;;;5.78;;
27517;SDS011;14962;52.482;13.142;2022-09-09T02:23:05;7.60;;;6.00;;
27517;SDS011;14962;52.482;13.142;2022-09-09T02:25:32;9.65;;;5.93;;
27517;SDS011;14962;52.482;13.142;2022-09-09T02:28:00;7.85;;;6.00;;
27517;SDS011;14962;52.482;13.142;2022-09-09T02:30:27;7.03;;;5.72;;
27517;SDS011;14962;52.482;13.142;2022-09-09T02:32:55;8.32;;;6.25;;
27517;SDS011;14962;52.482;13.142;2022-09-09T02:35:22;7.82;;;6.18;;
27517;SDS011;14962;52.482;13.142;2022-09-09T02:37:50;7.18;;;5.57;;
27517;SDS011;14962;52.482;13.142;2022-09-09T02:40:17;8.13;;;6.18;;
27517;SDS011;14962;52.482;13.142;2022-09-09T02:42:44;8.07;;;6.07;;
27517;SDS011;14962;52.482;13.142;2022-09-09T02:45:12;8.65;;;5.78;;
27517;SDS011;14962;52.482;13.142;2022-09-09T02:47:50;7.75;;;6.35;;
27517;SDS011;14962;52.482;13.142;2022-09-09T02:55:39;7.20;;;5.97;;
27517;SDS011;14962;52.482;13.142;2022-09-09T02:58:08;8.23;;;6.22;;
27517;SDS011;14962;52.482;13.142;2022-09-09T03:00:36;8.35;;;5.93;;
27517;SDS011;14962;52.482;13.142;2022-09-09T03:03:05;8.20;;;6.93;;
27517;SDS011;14962;52.482;13.142;2022-09-09T03:05:32;7.78;;;6.25;;
27517;SDS011;14962;52.482;13.142;2022-09-09T03:07:58;9.90;;;6.38;;
27517;SDS011;14962;52.482;13.142;2022-09-09T03:10:24;7.53;;;5.90;;
27517;SDS011;14962;52.482;13.142;2022-09-09T03:12:50;7.10;;;5.43;;
27517;SDS011;14962;52.482;13.142;2022-09-09T03:15:16;7.80;;;5.30;;
27517;SDS011;14962;52.482;13.142;2022-09-09T03:17:42;7.90;;;5.35;;
27517;SDS011;14962;52.482;13.142;2022-09-09T03:20:08;7.53;;;5.15;;
27517;SDS011;14962;52.482;13.142;2022-09-09T03:22:34;6.93;;;5.70;;
27517;SDS011;14962;52.482;13.142;2022-09-09T03:25:01;6.63;;;5.45;;
27517;SDS011;14962;52.482;13.142;2022-09-09T03:27:27;8.50;;;6.10;;
27517;SDS011;14962;52.482;13.142;2022-09-09T03:29:54;7.63;;;5.72;;
27517;SDS011;14962;52.482;13.142;2022-09-09T03:32:20;9.70;;;5.72;;
27517;SDS011;14962;52.482;13.142;2022-09-09T03:34:47;5.85;;;5.03;;
27517;SDS011;14962;52.482;13.142;2022-09-09T03:37:15;7.95;;;6.00;;
27517;SDS011;14962;52.482;13.142;2022-09-09T03:39:42;9.75;;;5.78;;
27517;SDS011;14962;52.482;13.142;2022-09-09T03:42:08;6.90;;;5.82;;
27517;SDS011;14962;52.482;13.142;2022-09-09T03:44:35;8.27;;;5.68;;
27517;SDS011;14962;52.482;13.142;2022-09-09T03:47:01;7.63;;;6.00;;
27517;SDS011;14962;52.482;13.142;2022-09-09T03:49:27;9.35;;;5.22;;
27517;SDS011;14962;52.482;13.142;2022-09-09T03:51:53;10.80;;;5.65;;
27517;SDS011;14962;52.482;13.142;2022-09-09T03:54:19;6.45;;;5.30;;
27517;SDS011;14962;52.482;13.142;2022-09-09T03:56:45;6.35;;;5.13;;
27517;SDS011;14962;52.482;13.142;2022-09-09T03:59:11;8.60;;;6.15;;
27517;SDS011;14962;52.482;13.142;2022-09-09T04:01:39;7.35;;;5.97;;
27517;SDS011;14962;52.482;13.142;2022-09-09T04:04:05;9.25;;;5.55;;
27517;SDS011;14962;52.482;13.142;2022-09-09T04:06:31;7.60;;;5.47;;
27517;SDS011;14962;52.482;13.142;2022-09-09T04:08:57;9.20;;;5.68;;
27517;SDS011;14962;52.482;13.142;2022-09-09T04:11:23;8.60;;;5.22;;
27517;SDS011;14962;52.482;13.142;2022-09-09T04:13:49;6.68;;;5.40;;
27517;SDS011;14962;52.482;13.142;2022-09-09T04:16:15;6.65;;;4.85;;
27517;SDS011;14962;52.482;13.142;2022-09-09T04:18:41;7.88;;;5.38;;
27517;SDS011;14962;52.482;13.142;2022-09-09T04:21:08;9.70;;;5.65;;
27517;SDS011;14962;52.482;13.142;2022-09-09T04:23:35;7.65;;;5.13;;
27517;SDS011;14962;52.482;13.142;2022-09-09T04:26:01;8.80;;;5.18;;
27517;SDS011;14962;52.482;13.142;2022-09-09T04:28:29;8.10;;;5.03;;
27517;SDS011;14962;52.482;13.142;2022-09-09T04:30:55;6.40;;;4.97;;
27517;SDS011;14962;52.482;13.142;2022-09-09T04:33:24;5.85;;;4.82;;
27517;SDS011;14962;52.482;13.142;2022-09-09T04:35:51;7.72;;;4.55;;
27517;SDS011;14962;52.482;13.142;2022-09-09T04:38:19;6.15;;;4.65;;
27517;SDS011;14962;52.482;13.142;2022-09-09T04:40:47;5.97;;;4.93;;
27517;SDS011;14962;52.482;13.142;2022-09-09T04:43:14;7.75;;;5.15;;
27517;SDS011;14962;52.482;13.142;2022-09-09T04:45:41;8.43;;;4.55;;
27517;SDS011;14962;52.482;13.142;2022-09-09T04:48:07;6.65;;;5.18;;
27517;SDS011;14962;52.482;13.142;2022-09-09T04:50:34;8.02;;;5.00;;
27517;SDS011;14962;52.482;13.142;2022-09-09T04:53:03;5.38;;;4.32;;
27517;SDS011;14962;52.482;13.142;2022-09-09T04:55:33;5.72;;;4.47;;
27517;SDS011;14962;52.482;13.142;2022-09-09T04:58:07;6.63;;;4.22;;
27517;SDS011;14962;52.482;13.142;2022-09-09T05:03:03;6.22;;;4.38;;
27517;SDS011;14962;52.482;13.142;2022-09-09T05:05:29;9.15;;;4.70;;
27517;SDS011;14962;52.482;13.142;2022-09-09T05:08:00;6.13;;;4.43;;
27517;SDS011;14962;52.482;13.142;2022-09-09T05:10:27;6.43;;;4.40;;
27517;SDS011;14962;52.482;13.142;2022-09-09T05:12:53;7.72;;;4.90;;
27517;SDS011;14962;52.482;13.142;2022-09-09T05:15:19;7.20;;;4.72;;
27517;SDS011;14962;52.482;13.142;2022-09-09T05:17:46;6.82;;;4.63;;
27517;SDS011;14962;52.482;13.142;2022-09-09T05:20:12;11.43;;;4.90;;
27517;SDS011;14962;52.482;13.142;2022-09-09T05:22:38;7.78;;;4.63;;
27517;SDS011;14962;52.482;13.142;2022-09-09T05:25:05;6.32;;;5.25;;
27517;SDS011;14962;52.482;13.142;2022-09-09T05:27:33;6.53;;;4.88;;
27517;SDS011;14962;52.482;13.142;2022-09-09T05:29:59;7.13;;;5.18;;
27517;SDS011;14962;52.482;13.142;2022-09-09T05:32:25;6.78;;;5.03;;
27517;SDS011;14962;52.482;13.142;2022-09-09T05:34:51;9.73;;;4.85;;
27517;SDS011;14962;52.482;13.142;2022-09-09T05:37:17;7.95;;;5.32;;
27517;SDS011;14962;52.482;13.142;2022-09-09T05:39:43;8.25;;;4.78;;
27517;SDS011;14962;52.482;13.142;2022-09-09T05:42:09;8.20;;;4.88;;
27517;SDS011;14962;52.482;13.142;2022-09-09T05:44:35;8.75;;;5.43;;
27517;SDS011;14962;52.482;13.142;2022-09-09T05:47:02;6.80;;;4.53;;
27517;SDS011;14962;52.482;13.142;2022-09-09T05:49:28;11.32;;;4.47;;
27517;SDS011;14962;52.482;13.142;2022-09-09T05:51:54;8.40;;;4.70;;
27517;SDS011;14962;52.482;13.142;2022-09-09T05:54:20;7.43;;;4.57;;
27517;SDS011;14962;52.482;13.142;2022-09-09T05:56:46;8.18;;;4.55;;
27517;SDS011;14962;52.482;13.142;2022-09-09T05:59:14;7.40;;;4.72;;
27517;SDS011;14962;52.482;13.142;2022-09-09T06:01:41;5.43;;;3.80;;
27517;SDS011;14962;52.482;13.142;2022-09-09T06:04:07;5.43;;;4.07;;
27517;SDS011;14962;52.482;13.142;2022-09-09T06:06:34;7.78;;;4.78;;
27517;SDS011;14962;52.482;13.142;2022-09-09T06:09:05;7.95;;;4.40;;
27517;SDS011;14962;52.482;13.142;2022-09-09T06:11:34;6.25;;;4.40;;
27517;SDS011;14962;52.482;13.142;2022-09-09T06:14:00;8.02;;;4.22;;
27517;SDS011;14962;52.482;13.142;2022-09-09T06:16:27;6.28;;;4.20;;
27517;SDS011;14962;52.482;13.142;2022-09-09T06:18:54;7.05;;;3.83;;
27517;SDS011;14962;52.482;13.142;2022-09-09T06:21:22;4.80;;;3.35;;
27517;SDS011;14962;52.482;13.142;2022-09-09T06:23:48;4.53;;;3.25;;
27517;SDS011;14962;52.482;13.142;2022-09-09T06:26:20;5.53;;;3.00;;
27517;SDS011;14962;52.482;13.142;2022-09-09T06:28:47;8.68;;;3.40;;
27517;SDS011;14962;52.482;13.142;2022-09-09T06:31:15;8.88;;;3.47;;
27517;SDS011;14962;52.482;13.142;2022-09-09T06:33:42;6.78;;;3.60;;
27517;SDS011;14962;52.482;13.142;2022-09-09T06:36:13;4.85;;;3.13;;
27517;SDS011;14962;52.482;13.142;2022-09-09T06:38:39;4.95;;;2.95;;
27517;SDS011;14962;52.482;13.142;2022-09-09T06:41:06;8.15;;;2.92;;
27517;SDS011;14962;52.482;13.142;2022-09-09T06:43:32;4.28;;;3.00;;
27517;SDS011;14962;52.482;13.142;2022-09-09T06:46:01;5.50;;;2.83;;
27517;SDS011;14962;52.482;13.142;2022-09-09T06:48:27;9.32;;;2.70;;
27517;SDS011;14962;52.482;13.142;2022-09-09T06:53:32;4.50;;;2.25;;
27517;SDS011;14962;52.482;13.142;2022-09-09T06:56:02;4.47;;;2.13;;
27517;SDS011;14962;52.482;13.142;2022-09-09T06:58:28;3.00;;;2.30;;
27517;SDS011;14962;52.482;13.142;2022-09-09T07:01:07;3.97;;;2.13;;
27517;SDS011;14962;52.482;13.142;2022-09-09T07:03:33;6.70;;;2.35;;
27517;SDS011;14962;52.482;13.142;2022-09-09T07:06:00;5.32;;;2.17;;
27517;SDS011;14962;52.482;13.142;2022-09-09T07:08:26;5.05;;;2.40;;
27517;SDS011;14962;52.482;13.142;2022-09-09T07:10:52;4.03;;;2.38;;
27517;SDS011;14962;52.482;13.142;2022-09-09T07:13:24;7.38;;;2.05;;
27517;SDS011;14962;52.482;13.142;2022-09-09T07:15:50;4.47;;;1.88;;
27517;SDS011;14962;52.482;13.142;2022-09-09T07:18:16;4.82;;;1.98;;
27517;SDS011;14962;52.482;13.142;2022-09-09T07:20:42;4.13;;;1.65;;
27517;SDS011;14962;52.482;13.142;2022-09-09T07:23:08;5.70;;;1.70;;
27517;SDS011;14962;52.482;13.142;2022-09-09T07:25:34;5.13;;;1.70;;
27517;SDS011;14962;52.482;13.142;2022-09-09T07:28:01;6.88;;;2.08;;
27517;SDS011;14962;52.482;13.142;2022-09-09T07:30:28;3.42;;;1.42;;
27517;SDS011;14962;52.482;13.142;2022-09-09T07:32:54;4.07;;;1.55;;
27517;SDS011;14962;52.482;13.142;2022-09-09T07:35:21;2.78;;;1.40;;
27517;SDS011;14962;52.482;13.142;2022-09-09T07:37:47;2.63;;;1.45;;
27517;SDS011;14962;52.482;13.142;2022-09-09T07:40:13;5.50;;;1.70;;
27517;SDS011;14962;52.482;13.142;2022-09-09T07:42:39;3.95;;;1.50;;
27517;SDS011;14962;52.482;13.142;2022-09-09T07:45:05;2.78;;;1.55;;
27517;SDS011;14962;52.482;13.142;2022-09-09T07:47:31;2.85;;;1.67;;
27517;SDS011;14962;52.482;13.142;2022-09-09T07:49:58;3.05;;;1.70;;
27517;SDS011;14962;52.482;13.142;2022-09-09T07:52:24;4.88;;;2.15;;
27517;SDS011;14962;52.482;13.142;2022-09-09T07:54:50;3.25;;;1.40;;
27517;SDS011;14962;52.482;13.142;2022-09-09T07:57:17;3.10;;;1.63;;
27517;SDS011;14962;52.482;13.142;2022-09-09T07:59:43;3.13;;;1.42;;
27517;SDS011;14962;52.482;13.142;2022-09-09T08:02:09;6.00;;;1.60;;
27517;SDS011;14962;52.482;13.142;2022-09-09T08:04:35;10.18;;;1.83;;
27517;SDS011;14962;52.482;13.142;2022-09-09T08:07:02;4.25;;;1.63;;
27517;SDS011;14962;52.482;13.142;2022-09-09T08:09:28;3.38;;;1.70;;
27517;SDS011;14962;52.482;13.142;2022-09-09T08:11:55;9.07;;;1.40;;
27517;SDS011;14962;52.482;13.142;2022-09-09T08:14:24;5.25;;;1.40;;
27517;SDS011;14962;52.482;13.142;2022-09-09T08:16:51;4.55;;;1.25;;
27517;SDS011;14962;52.482;13.142;2022-09-09T08:19:18;4.10;;;1.33;;
27517;SDS011;14962;52.482;13.142;2022-09-09T08:21:44;10.13;;;2.28;;
27517;SDS011;14962;52.482;13.142;2022-09-09T08:24:11;4.53;;;1.27;;
27517;SDS011;14962;52.482;13.142;2022-09-09T08:26:38;2.35;;;1.10;;
27517;SDS011;14962;52.482;13.142;2022-09-09T08:29:05;3.53;;;1.17;;
27517;SDS011;14962;52.482;13.142;2022-09-09T08:33:58;2.95;;;1.58;;
27517;SDS011;14962;52.482;13.142;2022-09-09T08:36:25;2.70;;;1.15;;
27517;SDS011;14962;52.482;13.142;2022-09-09T08:38:52;5.95;;;1.40;;
27517;SDS011;14962;52.482;13.142;2022-09-09T08:41:28;3.20;;;1.17;;
27517;SDS011;14962;52.482;13.142;2022-09-09T08:44:01;4.50;;;1.30;;
27517;SDS011;14962;52.482;13.142;2022-09-09T08:47:05;2.83;;;0.90;;
27517;SDS011;14962;52.482;13.142;2022-09-09T08:51:56;4.72;;;1.40;;
27517;SDS011;14962;52.482;13.142;2022-09-09T08:54:23;3.38;;;1.08;;
27517;SDS011;14962;52.482;13.142;2022-09-09T08:56:49;2.67;;;1.10;;
27517;SDS011;14962;52.482;13.142;2022-09-09T08:59:17;3.22;;;1.23;;
27517;SDS011;14962;52.482;13.142;2022-09-09T09:01:51;4.72;;;1.40;;
27517;SDS011;14962;52.482;13.142;2022-09-09T09:04:28;2.17;;;1.02;;
27517;SDS011;14962;52.482;13.142;2022-09-09T09:07:05;3.85;;;1.50;;
27517;SDS011;14962;52.482;13.142;2022-09-09T09:12:24;1.73;;;1.00;;
27517;SDS011;14962;52.482;13.142;2022-09-09T09:14:51;3.97;;;1.25;;
27517;SDS011;14962;52.482;13.142;2022-09-09T09:17:18;4.45;;;1.15;;
27517;SDS011;14962;52.482;13.142;2022-09-09T09:19:45;3.10;;;1.20;;
27517;SDS011;14962;52.482;13.142;2022-09-09T09:24:50;3.08;;;1.13;;
27517;SDS011;14962;52.482;13.142;2022-09-09T09:30:14;2.45;;;0.80;;
27517;SDS011;14962;52.482;13.142;2022-09-09T09:32:40;6.25;;;1.00;;
27517;SDS011;14962;52.482;13.142;2022-09-09T09:35:12;3.60;;;1.00;;
27517;SDS011;14962;52.482;13.142;2022-09-09T09:37:39;5.05;;;1.02;;
27517;SDS011;14962;52.482;13.142;2022-09-09T09:40:10;1.77;;;1.00;;
27517;SDS011;14962;52.482;13.142;2022-09-09T09:42:37;2.05;;;1.00;;
27517;SDS011;14962;52.482;13.142;2022-09-09T09:45:07;5.25;;;1.02;;
27517;SDS011;14962;52.482;13.142;2022-09-09T09:47:35;3.83;;;1.23;;
27517;SDS011;14962;52.482;13.142;2022-09-09T09:50:01;4.82;;;1.13;;
27517;SDS011;14962;52.482;13.142;2022-09-09T09:52:28;3.17;;;0.90;;
27517;SDS011;14962;52.482;13.142;2022-09-09T09:54:55;6.85;;;1.10;;
27517;SDS011;14962;52.482;13.142;2022-09-09T09:57:31;5.65;;;1.17;;
27517;SDS011;14962;52.482;13.142;2022-09-09T10:00:31;5.90;;;1.25;;
27517;SDS011;14962;52.482;13.142;2022-09-09T10:02:50;4.60;;;0.80;;
27517;SDS011;14962;52.482;13.142;2022-09-09T10:05:30;1.25;;;0.60;;
27517;SDS011;14962;52.482;13.142;2022-09-09T10:08:00;3.08;;;0.82;;
27517;SDS011;14962;52.482;13.142;2022-09-09T10:10:32;4.80;;;0.80;;
27517;SDS011;14962;52.482;13.142;2022-09-09T10:13:20;4.45;;;0.88;;
27517;SDS011;14962;52.482;13.142;2022-09-09T10:15:52;2.63;;;0.73;;
27517;SDS011;14962;52.482;13.142;2022-09-09T10:20:54;1.85;;;0.80;;
27517;SDS011;14962;52.482;13.142;2022-09-09T10:26:20;7.15;;;0.90;;
27517;SDS011;14962;52.482;13.142;2022-09-09T10:29:00;3.30;;;0.98;;
27517;SDS011;14962;52.482;13.142;2022-09-09T10:31:41;3.20;;;0.70;;
27517;SDS011;14962;52.482;13.142;2022-09-09T10:36:56;4.32;;;1.13;;
27517;SDS011;14962;52.482;13.142;2022-09-09T10:39:32;7.90;;;1.05;;
27517;SDS011;14962;52.482;13.142;2022-09-09T10:42:07;1.45;;;0.70;;
27517;SDS011;14962;52.482;13.142;2022-09-09T10:47:22;4.43;;;0.82;;
27517;SDS011;14962;52.482;13.142;2022-09-09T10:50:11;3.88;;;1.02;;
27517;SDS011;14962;52.482;13.142;2022-09-09T10:55:26;2.80;;;1.05;;
27517;SDS011;14962;52.482;13.142;2022-09-09T10:57:57;2.67;;;0.75;;
27517;SDS011;14962;52.482;13.142;2022-09-09T11:00:43;4.78;;;0.88;;
27517;SDS011;14962;52.482;13.142;2022-09-09T11:03:15;1.73;;;0.60;;
27517;SDS011;14962;52.482;13.142;2022-09-09T11:05:45;2.97;;;1.15;;
27517;SDS011;14962;52.482;13.142;2022-09-09T11:08:21;4.15;;;0.95;;
27517;SDS011;14962;52.482;13.142;2022-09-09T11:10:53;5.60;;;1.13;;
27517;SDS011;14962;52.482;13.142;2022-09-09T11:13:26;3.60;;;1.00;;
27517;SDS011;14962;52.482;13.142;2022-09-09T11:16:01;2.60;;;0.88;;
27517;SDS011;14962;52.482;13.142;2022-09-09T11:18:30;2.45;;;1.13;;
27517;SDS011;14962;52.482;13.142;2022-09-09T11:21:00;3.97;;;1.00;;
27517;SDS011;14962;52.482;13.142;2022-09-09T11:23:33;2.58;;;0.50;;
27517;SDS011;14962;52.482;13.142;2022-09-09T11:26:03;3.03;;;0.75;;
27517;SDS011;14962;52.482;13.142;2022-09-09T11:31:21;1.85;;;0.50;;
27517;SDS011;14962;52.482;13.142;2022-09-09T11:33:54;4.80;;;0.98;;
27517;SDS011;14962;52.482;13.142;2022-09-09T11:36:42;2.85;;;0.90;;
27517;SDS011;14962;52.482;13.142;2022-09-09T11:39:32;4.10;;;1.08;;
27517;SDS011;14962;52.482;13.142;2022-09-09T11:42:05;3.75;;;0.93;;
27517;SDS011;14962;52.482;13.142;2022-09-09T11:44:31;3.25;;;0.60;;
27517;SDS011;14962;52.482;13.142;2022-09-09T11:46:58;2.17;;;0.75;;
27517;SDS011;14962;52.482;13.142;2022-09-09T11:49:39;2.10;;;0.63;;
27517;SDS011;14962;52.482;13.142;2022-09-09T11:52:20;11.80;;;0.93;;
27517;SDS011;14962;52.482;13.142;2022-09-09T11:54:48;2.78;;;0.45;;
27517;SDS011;14962;52.482;13.142;2022-09-09T11:57:30;5.88;;;0.73;;
27517;SDS011;14962;52.482;13.142;2022-09-09T11:59:58;1.27;;;0.40;;
27517;SDS011;14962;52.482;13.142;2022-09-09T12:02:25;3.90;;;0.73;;
27517;SDS011;14962;52.482;13.142;2022-09-09T12:05:02;2.33;;;0.57;;
27517;SDS011;14962;52.482;13.142;2022-09-09T12:07:38;3.35;;;0.70;;
27517;SDS011;14962;52.482;13.142;2022-09-09T12:12:34;2.60;;;0.50;;
27517;SDS011;14962;52.482;13.142;2022-09-09T12:17:43;4.57;;;0.70;;
27517;SDS011;14962;52.482;13.142;2022-09-09T12:20:14;4.43;;;0.60;;
27517;SDS011;14962;52.482;13.142;2022-09-09T12:30:32;2.38;;;0.60;;
27517;SDS011;14962;52.482;13.142;2022-09-09T12:33:08;2.60;;;0.50;;
27517;SDS011;14962;52.482;13.142;2022-09-09T12:35:37;3.30;;;0.80;;
27517;SDS011;14962;52.482;13.142;2022-09-09T12:38:03;4.45;;;0.50;;
27517;SDS011;14962;52.482;13.142;2022-09-09T12:40:33;2.45;;;0.30;;
27517;SDS011;14962;52.482;13.142;2022-09-09T12:43:00;1.77;;;0.55;;
27517;SDS011;14962;52.482;13.142;2022-09-09T12:45:28;1.55;;;0.40;;
27517;SDS011;14962;52.482;13.142;2022-09-09T12:48:14;1.85;;;0.32;;
27517;SDS011;14962;52.482;13.142;2022-09-09T12:50:46;3.85;;;0.63;;
27517;SDS011;14962;52.482;13.142;2022-09-09T12:53:18;2.45;;;0.50;;
27517;SDS011;14962;52.482;13.142;2022-09-09T12:55:50;4.65;;;0.90;;
27517;SDS011;14962;52.482;13.142;2022-09-09T12:58:17;3.28;;;0.85;;
27517;SDS011;14962;52.482;13.142;2022-09-09T13:00:54;2.30;;;0.43;;
27517;SDS011;14962;52.482;13.142;2022-09-09T13:03:23;2.40;;;0.40;;
27517;SDS011;14962;52.482;13.142;2022-09-09T13:05:50;1.30;;;0.38;;
27517;SDS011;14962;52.482;13.142;2022-09-09T13:08:16;5.80;;;0.50;;
27517;SDS011;14962;52.482;13.142;2022-09-09T13:10:56;2.03;;;0.32;;
27517;SDS011;14962;52.482;13.142;2022-09-09T13:13:27;3.53;;;0.57;;
27517;SDS011;14962;52.482;13.142;2022-09-09T13:15:58;2.83;;;0.80;;
27517;SDS011;14962;52.482;13.142;2022-09-09T13:18:26;4.25;;;0.85;;
27517;SDS011;14962;52.482;13.142;2022-09-09T13:20:53;4.20;;;0.60;;
27517;SDS011;14962;52.482;13.142;2022-09-09T13:23:19;1.20;;;0.50;;
27517;SDS011;14962;52.482;13.142;2022-09-09T13:25:56;2.20;;;0.70;;
27517;SDS011;14962;52.482;13.142;2022-09-09T13:28:23;4.60;;;0.90;;
27517;SDS011;14962;52.482;13.142;2022-09-09T13:31:00;9.05;;;0.90;;
27517;SDS011;14962;52.482;13.142;2022-09-09T13:33:30;1.70;;;0.60;;
27517;SDS011;14962;52.482;13.142;2022-09-09T13:36:03;2.58;;;0.60;;
27517;SDS011;14962;52.482;13.142;2022-09-09T13:41:18;2.17;;;0.65;;
27517;SDS011;14962;52.482;13.142;2022-09-09T13:43:46;2.80;;;0.70;;
27517;SDS011;14962;52.482;13.142;2022-09-09T13:48:54;2.58;;;0.52;;
27517;SDS011;14962;52.482;13.142;2022-09-09T13:51:32;4.75;;;1.60;;
27517;SDS011;14962;52.482;13.142;2022-09-09T13:53:59;1.98;;;0.65;;
27517;SDS011;14962;52.482;13.142;2022-09-09T13:56:25;3.90;;;0.63;;
27517;SDS011;14962;52.482;13.142;2022-09-09T13:58:51;4.55;;;0.60;;
27517;SDS011;14962;52.482;13.142;2022-09-09T14:01:17;2.40;;;0.50;;
27517;SDS011;14962;52.482;13.142;2022-09-09T14:03:43;3.08;;;0.80;;
27517;SDS011;14962;52.482;13.142;2022-09-09T14:06:09;1.65;;;0.47;;
27517;SDS011;14962;52.482;13.142;2022-09-09T14:08:35;4.60;;;0.73;;
27517;SDS011;14962;52.482;13.142;2022-09-09T14:11:03;2.72;;;0.75;;
27517;SDS011;14962;52.482;13.142;2022-09-09T14:13:29;2.05;;;0.60;;
27517;SDS011;14962;52.482;13.142;2022-09-09T14:15:55;2.67;;;0.50;;
27517;SDS011;14962;52.482;13.142;2022-09-09T14:18:21;4.07;;;0.63;;
27517;SDS011;14962;52.482;13.142;2022-09-09T14:20:48;4.78;;;0.50;;
27517;SDS011;14962;52.482;13.142;2022-09-09T14:23:15;2.15;;;0.60;;
27517;SDS011;14962;52.482;13.142;2022-09-09T14:25:42;2.38;;;0.60;;
27517;SDS011;14962;52.482;13.142;2022-09-09T14:28:09;3.17;;;0.80;;
27517;SDS011;14962;52.482;13.142;2022-09-09T14:30:35;1.80;;;0.77;;
27517;SDS011;14962;52.482;13.142;2022-09-09T14:33:02;2.88;;;0.57;;
27517;SDS011;14962;52.482;13.142;2022-09-09T14:35:28;4.15;;;0.70;;
27517;SDS011;14962;52.482;13.142;2022-09-09T14:37:54;2.25;;;0.40;;
27517;SDS011;14962;52.482;13.142;2022-09-09T14:40:21;3.35;;;0.60;;
27517;SDS011;14962;52.482;13.142;2022-09-09T14:42:47;2.80;;;0.50;;
27517;SDS011;14962;52.482;13.142;2022-09-09T14:45:13;4.03;;;0.55;;
27517;SDS011;14962;52.482;13.142;2022-09-09T14:47:39;1.90;;;0.57;;
27517;SDS011;14962;52.482;13.142;2022-09-09T14:50:05;4.80;;;0.52;;
27517;SDS011;14962;52.482;13.142;2022-09-09T14:52:32;2.10;;;0.30;;
27517;SDS011;14962;52.482;13.142;2022-09-09T14:54:58;2.85;;;0.40;;
27517;SDS011;14962;52.482;13.142;2022-09-09T14:57:24;3.55;;;0.55;;
27517;SDS011;14962;52.482;13.142;2022-09-09T14:59:50;2.85;;;0.38;;
27517;SDS011;14962;52.482;13.142;2022-09-09T15:02:16;2.22;;;0.50;;
27517;SDS011;14962;52.482;13.142;2022-09-09T15:04:42;3.47;;;0.50;;
27517;SDS011;14962;52.482;13.142;2022-09-09T15:07:09;2.75;;;0.60;;
27517;SDS011;14962;52.482;13.142;2022-09-09T15:09:35;3.25;;;0.68;;
27517;SDS011;14962;52.482;13.142;2022-09-09T15:12:02;2.35;;;0.30;;
27517;SDS011;14962;52.482;13.142;2022-09-09T15:14:29;3.85;;;0.60;;
27517;SDS011;14962;52.482;13.142;2022-09-09T15:16:55;1.23;;;0.55;;
27517;SDS011;14962;52.482;13.142;2022-09-09T15:19:21;2.67;;;0.60;;
27517;SDS011;14962;52.482;13.142;2022-09-09T15:21:47;4.00;;;0.70;;
27517;SDS011;14962;52.482;13.142;2022-09-09T15:24:14;1.90;;;0.52;;
27517;SDS011;14962;52.482;13.142;2022-09-09T15:26:41;2.10;;;0.50;;
27517;SDS011;14962;52.482;13.142;2022-09-09T15:29:07;6.43;;;0.65;;
27517;SDS011;14962;52.482;13.142;2022-09-09T15:31:33;9.48;;;0.60;;
27517;SDS011;14962;52.482;13.142;2022-09-09T15:34:00;3.25;;;0.52;;
27517;SDS011;14962;52.482;13.142;2022-09-09T15:36:28;1.42;;;0.52;;
27517;SDS011;14962;52.482;13.142;2022-09-09T15:38:55;1.52;;;0.57;;
27517;SDS011;14962;52.482;13.142;2022-09-09T15:41:21;3.33;;;0.80;;
27517;SDS011;14962;52.482;13.142;2022-09-09T15:43:51;2.45;;;0.82;;
27517;SDS011;14962;52.482;13.142;2022-09-09T15:46:22;8.05;;;0.80;;
27517;SDS011;14962;52.482;13.142;2022-09-09T15:48:52;4.07;;;1.10;;
27517;SDS011;14962;52.482;13.142;2022-09-09T15:51:18;4.35;;;0.65;;
27517;SDS011;14962;52.482;13.142;2022-09-09T15:53:44;2.58;;;0.75;;
27517;SDS011;14962;52.482;13.142;2022-09-09T15:56:10;2.88;;;0.90;;
27517;SDS011;14962;52.482;13.142;2022-09-09T15:58:36;2.42;;;0.70;;
27517;SDS011;14962;52.482;13.142;2022-09-09T16:01:03;2.42;;;0.85;;
27517;SDS011;14962;52.482;13.142;2022-09-09T16:03:33;1.48;;;0.50;;
27517;SDS011;14962;52.482;13.142;2022-09-09T16:05:59;2.20;;;0.60;;
27517;SDS011;14962;52.482;13.142;2022-09-09T16:08:31;2.42;;;0.80;;
27517;SDS011;14962;52.482;13.142;2022-09-09T16:11:03;2.45;;;0.50;;
27517;SDS011;14962;52.482;13.142;2022-09-09T16:13:32;3.30;;;0.77;;
27517;SDS011;14962;52.482;13.142;2022-09-09T16:15:58;1.25;;;0.60;;
27517;SDS011;14962;52.482;13.142;2022-09-09T16:18:24;5.22;;;0.80;;
27517;SDS011;14962;52.482;13.142;2022-09-09T16:20:53;7.50;;;0.98;;
27517;SDS011;14962;52.482;13.142;2022-09-09T16:23:20;2.80;;;0.70;;